Time;durP1;ratioP1;P1;durP2;ratioP2;P2;SDS_P1;SDS_P2;PMS_P1;PMS_P2;Temp;Humidity;BMP_temperature;BMP_pressure;BME280_temperature;BME280_humidity;BME280_pressure;Samples;Min_cycle;Max_cycle;Signal;HPM_P1;HPM_P2
2021/07/30 00:00:05;;;;;;;11.27;6.28;;;26.80;62.80;;;;;;5072603;28;20620;-73
2021/07/30 00:02:31;;;;;;;14.18;6.07;;;26.80;62.90;;;;;;5072654;28;20082;-73
2021/07/30 00:04:57;;;;;;;11.90;7.00;;;26.80;62.80;;;;;;5072638;28;20024;-73
2021/07/30 00:07:22;;;;;;;13.80;6.63;;;26.80;63.00;;;;;;5072273;28;20099;-73
2021/07/30 00:09:48;;;;;;;17.45;7.05;;;26.80;63.10;;;;;;5072615;28;20021;-72
2021/07/30 00:12:14;;;;;;;13.77;7.43;;;26.70;63.40;;;;;;5072319;28;20465;-73
2021/07/30 00:14:39;;;;;;;11.70;6.35;;;26.70;63.70;;;;;;5072520;28;20100;-73
2021/07/30 00:17:05;;;;;;;14.13;6.63;;;26.70;63.60;;;;;;5072871;28;20413;-73
2021/07/30 00:19:33;;;;;;;10.90;6.82;;;26.70;63.80;;;;;;5072646;28;20060;-72
2021/07/30 00:21:58;;;;;;;15.93;6.57;;;26.70;64.20;;;;;;5075902;28;20033;-73
2021/07/30 00:24:24;;;;;;;10.02;6.43;;;26.60;63.90;;;;;;5076235;28;20031;-73
2021/07/30 00:26:50;;;;;;;13.23;5.82;;;26.60;63.70;;;;;;5075730;28;20418;-73
2021/07/30 00:29:17;;;;;;;14.35;6.43;;;26.60;63.60;;;;;;5075921;28;20024;-72
2021/07/30 00:31:42;;;;;;;17.95;6.93;;;26.60;64.30;;;;;;5075810;28;20461;-72
2021/07/30 00:34:08;;;;;;;9.82;6.38;;;26.60;63.50;;;;;;5075816;28;20115;-72
2021/07/30 00:36:34;;;;;;;9.93;6.22;;;26.50;63.40;;;;;;5075773;28;20111;-72
2021/07/30 00:38:59;;;;;;;12.30;6.38;;;26.50;63.30;;;;;;5075658;28;20392;-73
2021/07/30 00:41:25;;;;;;;10.40;7.00;;;26.50;63.10;;;;;;5074957;28;20097;-73
2021/07/30 00:43:51;;;;;;;15.40;6.53;;;26.50;63.10;;;;;;5072992;28;20032;-73
2021/07/30 00:46:17;;;;;;;13.60;6.65;;;26.40;63.00;;;;;;5075683;28;20108;-73
2021/07/30 00:48:44;;;;;;;10.43;5.95;;;26.40;63.30;;;;;;5075924;28;20020;-74
2021/07/30 00:51:09;;;;;;;16.10;7.00;;;26.40;63.50;;;;;;5075507;28;20047;-73
2021/07/30 00:53:35;;;;;;;10.70;5.70;;;26.40;63.40;;;;;;5075489;28;20028;-73
2021/07/30 00:56:01;;;;;;;13.82;6.50;;;26.40;63.40;;;;;;5075307;28;20021;-73
2021/07/30 00:58:29;;;;;;;12.60;6.28;;;26.40;63.40;;;;;;5073936;28;20020;-73
2021/07/30 01:00:56;;;;;;;10.35;6.22;;;26.40;63.30;;;;;;5072857;28;20434;-73
2021/07/30 01:03:22;;;;;;;15.00;6.43;;;26.30;63.30;;;;;;5072680;28;20028;-72
2021/07/30 01:05:50;;;;;;;11.30;6.20;;;26.20;63.40;;;;;;5074469;28;20054;-73
2021/07/30 01:08:16;;;;;;;10.15;6.82;;;26.20;63.50;;;;;;5075023;28;20021;-73
2021/07/30 01:10:41;;;;;;;12.45;6.43;;;26.20;63.60;;;;;;5074067;28;20025;-73
2021/07/30 01:13:07;;;;;;;12.63;6.78;;;26.20;74.10;;;;;;5073445;28;20350;-73
2021/07/30 01:15:33;;;;;;;12.32;6.20;;;26.20;76.20;;;;;;5075095;28;20032;-73
2021/07/30 01:17:58;;;;;;;13.07;5.93;;;26.10;63.90;;;;;;5073217;28;20092;-74
2021/07/30 01:20:26;;;;;;;12.48;6.40;;;26.10;64.00;;;;;;5074470;28;20024;-73
2021/07/30 01:22:52;;;;;;;11.63;6.10;;;26.10;64.10;;;;;;5074966;28;20033;-73
2021/07/30 01:25:18;;;;;;;8.98;5.88;;;26.10;64.10;;;;;;5074647;28;20028;-73
2021/07/30 01:27:45;;;;;;;11.55;5.90;;;26.00;64.10;;;;;;5074100;28;20044;-73
2021/07/30 01:30:12;;;;;;;13.93;6.43;;;26.00;64.20;;;;;;5072871;28;20085;-73
2021/07/30 01:32:38;;;;;;;13.90;6.25;;;26.00;64.30;;;;;;5074091;28;20020;-73
2021/07/30 01:35:04;;;;;;;14.50;6.55;;;26.00;64.20;;;;;;5074284;28;20104;-73
2021/07/30 01:37:32;;;;;;;14.45;6.47;;;26.00;64.20;;;;;;5074725;28;20492;-73
2021/07/30 01:39:57;;;;;;;9.93;6.03;;;26.00;64.20;;;;;;5074818;28;20036;-73
2021/07/30 01:42:23;;;;;;;14.27;6.50;;;26.00;64.20;;;;;;5074636;28;20421;-73
2021/07/30 01:44:51;;;;;;;11.40;6.20;;;26.00;64.20;;;;;;5074373;28;20016;-73
2021/07/30 01:47:17;;;;;;;15.35;6.50;;;25.90;64.20;;;;;;5074485;28;20024;-73
2021/07/30 01:49:43;;;;;;;14.52;5.88;;;25.90;64.30;;;;;;5074310;28;20012;-72
2021/07/30 01:52:08;;;;;;;13.80;6.75;;;25.90;64.40;;;;;;5074180;28;20358;-73
2021/07/30 01:54:34;;;;;;;14.60;6.65;;;25.90;64.40;;;;;;5072516;28;20016;-73
2021/07/30 01:57:00;;;;;;;10.98;6.10;;;25.80;64.50;;;;;;5073614;28;20040;-73
2021/07/30 01:59:25;;;;;;;10.40;6.03;;;25.80;64.60;;;;;;5073998;28;20017;-73
2021/07/30 02:01:51;;;;;;;10.27;6.30;;;25.90;64.60;;;;;;5074110;28;20043;-72
2021/07/30 02:04:18;;;;;;;14.15;7.22;;;25.80;64.70;;;;;;5074246;28;20481;-72
2021/07/30 02:06:44;;;;;;;15.45;6.97;;;25.80;64.80;;;;;;5074038;28;20384;-73
2021/07/30 02:09:10;;;;;;;9.75;6.78;;;25.80;64.80;;;;;;5074272;28;20028;-73
2021/07/30 02:11:36;;;;;;;11.23;6.95;;;25.70;64.80;;;;;;5074165;28;20020;-73
2021/07/30 02:14:16;;;;;;;12.23;6.60;;;25.80;65.00;;;;;;5073998;28;20028;-73
2021/07/30 02:16:47;;;;;;;10.27;7.05;;;25.70;65.00;;;;;;5073897;28;20109;-74
2021/07/30 02:19:13;;;;;;;14.20;6.45;;;25.70;65.20;;;;;;5074170;28;20036;-73
2021/07/30 02:21:40;;;;;;;9.77;6.97;;;25.70;65.30;;;;;;5073826;28;20040;-73
2021/07/30 02:24:07;;;;;;;12.05;7.07;;;25.70;65.30;;;;;;5073759;28;20029;-73
2021/07/30 02:26:32;;;;;;;14.40;6.72;;;25.70;65.70;;;;;;5073380;28;20378;-73
2021/07/30 02:28:58;;;;;;;14.20;6.57;;;25.60;65.80;;;;;;5073272;28;20028;-73
2021/07/30 02:31:25;;;;;;;14.88;7.10;;;25.60;65.80;;;;;;5071540;28;20060;-72
2021/07/30 02:33:51;;;;;;;13.60;7.35;;;25.60;66.00;;;;;;5071377;28;20021;-73
2021/07/30 02:36:17;;;;;;;9.23;6.82;;;25.60;66.00;;;;;;5073473;28;20032;-72
2021/07/30 02:38:43;;;;;;;12.27;7.05;;;25.60;66.20;;;;;;5073256;28;20082;-72
2021/07/30 02:41:09;;;;;;;14.85;6.80;;;25.60;66.20;;;;;;5073288;28;20028;-72
2021/07/30 02:43:35;;;;;;;11.40;7.20;;;25.50;66.00;;;;;;5072037;28;20119;-73
2021/07/30 02:46:00;;;;;;;10.63;7.05;;;25.50;66.00;;;;;;5072816;28;20020;-73
2021/07/30 02:48:26;;;;;;;13.50;7.35;;;25.50;66.20;;;;;;5073138;28;20024;-73
2021/07/30 02:50:52;;;;;;;11.80;6.85;;;25.50;66.20;;;;;;5073800;28;20085;-73
2021/07/30 02:53:17;;;;;;;13.75;6.80;;;25.50;66.40;;;;;;5073355;28;20024;-73
2021/07/30 02:55:46;;;;;;;10.32;6.68;;;25.50;66.40;;;;;;5072837;28;20036;-73
2021/07/30 02:58:14;;;;;;;11.05;6.88;;;25.50;66.40;;;;;;5073235;28;20017;-73
2021/07/30 03:00:40;;;;;;;15.90;7.45;;;25.40;66.50;;;;;;5073077;28;20028;-73
2021/07/30 03:03:06;;;;;;;11.88;7.18;;;25.40;66.40;;;;;;5073193;28;20036;-72
2021/07/30 03:05:32;;;;;;;13.52;6.93;;;25.40;66.40;;;;;;5072623;28;20423;-73
2021/07/30 03:07:58;;;;;;;17.17;6.35;;;25.40;66.50;;;;;;5072202;28;20492;-72
2021/07/30 03:10:23;;;;;;;9.20;6.97;;;25.40;66.40;;;;;;5073111;28;20070;-73
2021/07/30 03:12:49;;;;;;;15.15;6.90;;;25.30;66.20;;;;;;5073184;28;20029;-73
2021/07/30 03:15:15;;;;;;;15.40;7.05;;;25.30;66.10;;;;;;5073081;28;20020;-73
2021/07/30 03:17:41;;;;;;;11.75;6.60;;;25.30;66.10;;;;;;5073073;28;20016;-73
2021/07/30 03:20:07;;;;;;;11.77;6.72;;;25.30;66.10;;;;;;5073078;28;20028;-73
2021/07/30 03:22:34;;;;;;;10.45;6.57;;;25.30;66.20;;;;;;5072782;28;20040;-73
2021/07/30 03:25:00;;;;;;;10.35;6.65;;;25.30;66.20;;;;;;5072844;28;20056;-73
2021/07/30 03:27:26;;;;;;;13.50;6.90;;;25.30;66.90;;;;;;5072766;28;20501;-73
2021/07/30 03:29:52;;;;;;;11.77;7.05;;;25.20;66.20;;;;;;5072039;28;20044;-73
2021/07/30 03:32:18;;;;;;;9.63;7.03;;;25.20;66.20;;;;;;5072005;28;20481;-73
2021/07/30 03:34:46;;;;;;;10.13;7.38;;;25.20;66.10;;;;;;5072952;28;20051;-73
2021/07/30 03:37:12;;;;;;;12.75;6.75;;;25.20;66.30;;;;;;5072657;28;20028;-73
2021/07/30 03:39:38;;;;;;;11.45;7.15;;;25.20;66.40;;;;;;5072821;28;20021;-73
2021/07/30 03:42:04;;;;;;;18.08;8.30;;;25.20;66.50;;;;;;5072475;28;20044;-72
2021/07/30 03:44:30;;;;;;;12.80;7.00;;;25.10;66.50;;;;;;5071828;28;20404;-73
2021/07/30 03:46:55;;;;;;;10.63;6.55;;;25.10;66.50;;;;;;5072498;28;20031;-73
2021/07/30 03:49:21;;;;;;;11.15;6.72;;;25.10;66.50;;;;;;5072737;28;20433;-72
2021/07/30 03:51:47;;;;;;;12.98;7.30;;;25.10;66.60;;;;;;5072682;28;20020;-73
2021/07/30 03:54:12;;;;;;;10.63;7.00;;;25.10;66.60;;;;;;5073938;28;20046;-73
2021/07/30 03:56:42;;;;;;;10.65;7.35;;;25.10;66.70;;;;;;5076742;28;20024;-73
2021/07/30 03:59:09;;;;;;;9.63;6.63;;;25.10;66.70;;;;;;5076337;28;20107;-73
2021/07/30 04:01:35;;;;;;;14.05;7.63;;;25.10;66.90;;;;;;5076485;28;20032;-73
2021/07/30 04:04:01;;;;;;;13.52;6.78;;;25.10;67.10;;;;;;5076402;28;20032;-72
2021/07/30 04:06:27;;;;;;;13.77;7.85;;;25.10;67.10;;;;;;5076414;28;20028;-73
2021/07/30 04:08:53;;;;;;;15.32;7.85;;;25.10;67.90;;;;;;5076342;28;20056;-74
2021/07/30 04:11:19;;;;;;;12.70;7.32;;;25.00;67.20;;;;;;5076297;28;20052;-73
2021/07/30 04:13:46;;;;;;;13.02;7.90;;;25.00;67.10;;;;;;5074770;28;20074;-72
2021/07/30 04:16:12;;;;;;;17.10;7.45;;;25.10;67.40;;;;;;5076153;28;20404;-73
2021/07/30 04:18:38;;;;;;;13.13;6.95;;;25.10;67.30;;;;;;5075976;28;20468;-72
2021/07/30 04:21:05;;;;;;;17.45;7.97;;;25.00;67.40;;;;;;5075444;28;20025;-72
2021/07/30 04:23:31;;;;;;;13.70;7.32;;;25.00;67.30;;;;;;5075889;28;20036;-73
2021/07/30 04:25:57;;;;;;;11.95;7.30;;;25.00;67.30;;;;;;5075850;28;20024;-72
2021/07/30 04:28:23;;;;;;;13.45;6.82;;;25.00;67.30;;;;;;5076252;28;20032;-72
2021/07/30 04:30:49;;;;;;;15.40;6.88;;;25.00;67.30;;;;;;5075705;28;20598;-72
2021/07/30 04:33:14;;;;;;;9.77;6.90;;;25.00;67.30;;;;;;5075993;28;20028;-72
2021/07/30 04:35:40;;;;;;;9.75;6.65;;;25.00;67.40;;;;;;5075674;28;20028;-72
2021/07/30 04:38:06;;;;;;;16.10;7.32;;;25.00;67.40;;;;;;5075739;28;20024;-72
2021/07/30 04:40:32;;;;;;;17.55;6.63;;;25.00;67.40;;;;;;5075821;28;20017;-72
2021/07/30 04:42:58;;;;;;;12.20;7.18;;;25.00;67.40;;;;;;5075146;28;20032;-72
2021/07/30 04:45:24;;;;;;;12.05;6.53;;;25.00;67.30;;;;;;5074519;28;20016;-73
2021/07/30 04:47:50;;;;;;;11.50;6.80;;;25.00;67.30;;;;;;5074181;28;20431;-72
2021/07/30 04:50:16;;;;;;;12.93;6.53;;;25.00;67.30;;;;;;5075462;28;20016;-71
2021/07/30 04:52:42;;;;;;;12.45;6.57;;;25.00;67.20;;;;;;5075664;28;20059;-73
2021/07/30 04:55:08;;;;;;;21.38;8.02;;;25.00;67.30;;;;;;5074947;28;20031;-73
2021/07/30 04:57:34;;;;;;;18.90;7.68;;;25.00;67.40;;;;;;5073907;28;20103;-72
2021/07/30 04:59:59;;;;;;;12.65;6.80;;;25.00;67.30;;;;;;5075260;28;20116;-72
2021/07/30 05:02:25;;;;;;;15.95;7.63;;;25.00;67.30;;;;;;5074933;28;20033;-72
2021/07/30 05:04:54;;;;;;;12.48;7.13;;;25.00;67.30;;;;;;5075295;28;20020;-72
2021/07/30 05:07:22;;;;;;;10.98;6.78;;;25.00;67.30;;;;;;5074784;28;20074;-72
2021/07/30 05:09:47;;;;;;;10.93;6.78;;;25.00;67.40;;;;;;5074823;28;20017;-73
2021/07/30 05:12:13;;;;;;;15.05;7.15;;;25.00;67.60;;;;;;5073981;28;20040;-72
2021/07/30 05:14:39;;;;;;;16.50;7.35;;;25.00;67.60;;;;;;5074625;28;20077;-72
2021/07/30 05:17:04;;;;;;;16.77;7.15;;;25.00;67.70;;;;;;5075318;28;20036;-71
2021/07/30 05:19:30;;;;;;;17.10;7.80;;;25.00;67.70;;;;;;5074948;28;20012;-73
2021/07/30 05:21:56;;;;;;;10.50;7.13;;;25.00;67.90;;;;;;5075137;28;20036;-72
2021/07/30 05:24:21;;;;;;;14.82;7.28;;;25.10;67.80;;;;;;5074934;28;20016;-72
2021/07/30 05:26:47;;;;;;;17.92;7.20;;;25.10;67.90;;;;;;5074939;28;20040;-72
2021/07/30 05:29:13;;;;;;;10.35;7.03;;;25.10;67.80;;;;;;5075476;28;20025;-72
2021/07/30 05:31:38;;;;;;;15.07;6.95;;;25.10;67.60;;;;;;5075028;28;20381;-72
2021/07/30 05:34:04;;;;;;;12.93;6.53;;;25.10;67.50;;;;;;5074764;28;20102;-70
2021/07/30 05:36:30;;;;;;;13.05;6.40;;;25.10;67.50;;;;;;5074924;28;20511;-71
2021/07/30 05:38:55;;;;;;;15.07;7.22;;;25.20;67.70;;;;;;5074744;28;20021;-71
2021/07/30 05:41:22;;;;;;;11.82;6.18;;;25.20;67.60;;;;;;5074670;28;20408;-70
2021/07/30 05:43:49;;;;;;;15.18;6.70;;;25.20;67.50;;;;;;5074689;28;20059;-70
2021/07/30 05:46:19;;;;;;;98.45;10.13;;;25.20;67.20;;;;;;5073373;28;20028;-69
2021/07/30 05:48:49;;;;;;;21.15;6.55;;;25.20;67.20;;;;;;5073479;28;20028;-68
2021/07/30 05:51:15;;;;;;;13.15;6.10;;;25.30;67.20;;;;;;5073183;28;20428;-69
2021/07/30 05:53:41;;;;;;;12.20;6.43;;;25.30;67.10;;;;;;5073403;28;20052;-68
2021/07/30 05:56:07;;;;;;;14.07;6.63;;;25.30;67.10;;;;;;5073890;28;20503;-70
2021/07/30 05:58:33;;;;;;;13.65;6.47;;;25.30;67.10;;;;;;5073547;28;20020;-69
2021/07/30 06:00:59;;;;;;;12.55;6.28;;;25.30;67.40;;;;;;5073358;28;20422;-69
2021/07/30 06:03:25;;;;;;;12.40;6.50;;;25.30;67.40;;;;;;5073193;28;20473;-70
2021/07/30 06:05:51;;;;;;;9.40;6.43;;;25.40;67.30;;;;;;5072762;28;20028;-69
2021/07/30 06:08:17;;;;;;;9.40;6.28;;;25.40;67.40;;;;;;5073606;28;20051;-69
2021/07/30 06:10:42;;;;;;;13.75;7.50;;;25.40;67.30;;;;;;5073464;28;20457;-70
2021/07/30 06:13:08;;;;;;;25.08;7.47;;;25.40;67.30;;;;;;5073659;28;20028;-69
2021/07/30 06:15:34;;;;;;;10.45;7.13;;;25.50;67.50;;;;;;5073766;28;20021;-69
2021/07/30 06:18:03;;;;;;;27.75;7.90;;;25.50;67.70;;;;;;5072870;28;20047;-69
2021/07/30 06:20:30;;;;;;;18.65;7.50;;;25.60;67.60;;;;;;5074074;28;20123;-68
2021/07/30 06:23:00;;;;;;;14.52;7.70;;;25.60;67.60;;;;;;5073715;28;20396;-69
2021/07/30 06:25:26;;;;;;;46.20;12.57;;;25.70;67.90;;;;;;5073681;28;20116;-68
2021/07/30 06:27:51;;;;;;;14.52;7.60;;;25.70;68.90;;;;;;5071282;28;20587;-68
2021/07/30 06:30:17;;;;;;;10.82;6.78;;;25.70;69.00;;;;;;5072911;28;20109;-70
2021/07/30 06:32:43;;;;;;;8.73;6.97;;;25.80;68.90;;;;;;5073317;28;20028;-68
2021/07/30 06:35:10;;;;;;;14.10;7.75;;;25.80;68.90;;;;;;5073624;28;20024;-67
2021/07/30 06:37:36;;;;;;;14.15;7.57;;;25.80;69.10;;;;;;5073897;28;20095;-67
2021/07/30 06:40:04;;;;;;;16.65;6.95;;;25.90;69.10;;;;;;5073655;28;20028;-67
2021/07/30 06:42:34;;;;;;;15.80;7.15;;;25.90;69.40;;;;;;5073765;28;20039;-67
2021/07/30 06:45:00;;;;;;;13.18;7.15;;;26.00;68.70;;;;;;5074197;28;20025;-67
2021/07/30 06:47:25;;;;;;;13.13;8.13;;;26.00;68.40;;;;;;5073667;28;20025;-67
2021/07/30 06:49:51;;;;;;;10.02;6.57;;;26.10;68.40;;;;;;5073802;28;20485;-67
2021/07/30 06:52:17;;;;;;;15.85;7.18;;;26.10;68.30;;;;;;5073552;28;20040;-67
2021/07/30 06:54:43;;;;;;;14.15;7.22;;;26.10;68.20;;;;;;5073293;28;20376;-67
2021/07/30 06:57:09;;;;;;;11.88;7.22;;;26.20;67.90;;;;;;5073683;28;20032;-67
2021/07/30 06:59:35;;;;;;;11.00;6.95;;;26.30;67.70;;;;;;5073492;28;20350;-69
2021/07/30 07:02:01;;;;;;;15.40;7.20;;;26.30;67.80;;;;;;5073369;28;20036;-68
2021/07/30 07:04:28;;;;;;;12.27;7.00;;;26.40;67.60;;;;;;5073430;28;20021;-67
2021/07/30 07:06:53;;;;;;;10.93;6.82;;;26.40;67.90;;;;;;5073252;28;20365;-67
2021/07/30 07:09:19;;;;;;;8.23;6.10;;;26.50;67.00;;;;;;5073060;28;20028;-67
2021/07/30 07:11:45;;;;;;;11.82;6.68;;;26.50;66.60;;;;;;5073290;28;20024;-67
2021/07/30 07:14:11;;;;;;;14.38;7.13;;;26.50;66.40;;;;;;5073312;28;20025;-69
2021/07/30 07:16:37;;;;;;;12.57;6.45;;;26.60;66.20;;;;;;5073184;28;20016;-72
2021/07/30 07:19:04;;;;;;;15.82;6.53;;;26.60;66.00;;;;;;5072726;28;20115;-72
2021/07/30 07:21:33;;;;;;;12.02;6.22;;;26.70;66.10;;;;;;5070960;28;20040;-69
2021/07/30 07:24:00;;;;;;;15.43;6.28;;;26.80;66.00;;;;;;5071070;28;20029;-69
2021/07/30 07:26:25;;;;;;;11.38;6.30;;;26.80;65.50;;;;;;5070782;28;20067;-69
2021/07/30 07:28:51;;;;;;;12.40;7.20;;;26.90;65.50;;;;;;5070692;28;20021;-70
2021/07/30 07:31:17;;;;;;;14.70;6.30;;;26.90;65.20;;;;;;5071097;28;20025;-70
2021/07/30 07:33:42;;;;;;;9.32;6.38;;;27.00;64.80;;;;;;5071357;28;20370;-70
2021/07/30 07:36:08;;;;;;;12.15;6.72;;;27.10;64.60;;;;;;5072509;28;20059;-69
2021/07/30 07:38:34;;;;;;;12.38;7.20;;;27.10;64.20;;;;;;5073173;28;20035;-69
2021/07/30 07:41:01;;;;;;;13.82;7.18;;;27.20;64.10;;;;;;5072983;28;20362;-69
2021/07/30 07:43:26;;;;;;;11.63;6.97;;;27.20;63.70;;;;;;5072892;28;20024;-68
2021/07/30 07:45:52;;;;;;;18.00;7.75;;;27.30;64.00;;;;;;5072909;28;20028;-68
2021/07/30 07:48:18;;;;;;;14.80;6.63;;;27.40;64.30;;;;;;5072883;28;20381;-68
2021/07/30 07:50:44;;;;;;;16.65;6.88;;;27.40;63.80;;;;;;5072742;28;20021;-69
2021/07/30 07:53:17;;;;;;;15.15;6.50;;;27.40;63.70;;;;;;5072994;28;20024;-68
2021/07/30 07:55:44;;;;;;;15.55;7.07;;;27.50;63.50;;;;;;5072772;28;20036;-69
2021/07/30 07:58:10;;;;;;;11.73;6.35;;;27.50;63.20;;;;;;5073140;28;20032;-69
2021/07/30 08:00:36;;;;;;;14.15;6.90;;;27.60;63.40;;;;;;5072628;28;20031;-69
2021/07/30 08:03:02;;;;;;;12.45;6.55;;;27.60;63.60;;;;;;5071677;28;20473;-69
2021/07/30 08:05:28;;;;;;;17.65;7.07;;;27.70;63.30;;;;;;5071884;28;20070;-69
2021/07/30 08:07:54;;;;;;;18.40;6.57;;;27.70;63.10;;;;;;5072686;28;20358;-69
2021/07/30 08:10:20;;;;;;;22.70;7.63;;;27.80;62.60;;;;;;5072703;28;20051;-69
2021/07/30 08:12:46;;;;;;;13.25;7.50;;;27.80;62.00;;;;;;5072641;28;20027;-70
2021/07/30 08:15:12;;;;;;;13.45;6.90;;;27.80;61.40;;;;;;5072474;28;20078;-69
2021/07/30 08:17:39;;;;;;;16.08;6.05;;;27.90;61.30;;;;;;5072540;28;20044;-69
2021/07/30 08:20:06;;;;;;;15.25;7.30;;;28.00;61.30;;;;;;5072730;28;20122;-69
2021/07/30 08:22:32;;;;;;;17.85;7.90;;;28.00;61.50;;;;;;5072385;28;20037;-69
2021/07/30 08:24:58;;;;;;;15.60;7.10;;;28.10;62.10;;;;;;5072412;28;20588;-69
2021/07/30 08:27:24;;;;;;;10.68;6.75;;;28.20;60.90;;;;;;5072348;28;20382;-69
2021/07/30 08:29:49;;;;;;;16.35;7.10;;;28.30;60.00;;;;;;5072721;28;20027;-68
2021/07/30 08:32:17;;;;;;;19.75;6.53;;;28.30;59.00;;;;;;5072423;28;20027;-69
2021/07/30 08:34:43;;;;;;;19.10;7.18;;;28.40;58.20;;;;;;5072554;28;20047;-69
2021/07/30 08:37:10;;;;;;;13.13;6.40;;;28.40;58.10;;;;;;5071198;28;20107;-69
2021/07/30 08:39:36;;;;;;;13.05;6.97;;;28.40;59.00;;;;;;5072503;28;20111;-69
2021/07/30 08:42:04;;;;;;;12.73;6.53;;;28.50;59.80;;;;;;5074699;28;20032;-68
2021/07/30 08:44:30;;;;;;;11.40;5.93;;;28.60;59.30;;;;;;5075749;28;20119;-68
2021/07/30 08:46:56;;;;;;;19.38;6.90;;;28.70;57.80;;;;;;5075554;28;20493;-68
2021/07/30 08:49:22;;;;;;;15.20;6.50;;;28.70;57.30;;;;;;5075236;28;20028;-68
2021/07/30 08:52:06;;;;;;;18.02;6.47;;;28.80;57.40;;;;;;5074419;28;20016;-68
2021/07/30 08:54:32;;;;;;;10.93;6.60;;;28.90;57.00;;;;;;5074900;28;20461;-68
2021/07/30 08:56:57;;;;;;;13.70;6.65;;;28.90;57.10;;;;;;5075405;28;20038;-68
2021/07/30 08:59:23;;;;;;;13.75;7.20;;;29.00;57.40;;;;;;5075389;28;20021;-68
2021/07/30 09:01:53;;;;;;;15.68;6.50;;;29.00;57.20;;;;;;5075336;28;20040;-68
2021/07/30 09:04:29;;;;;;;21.17;7.25;;;29.10;57.40;;;;;;5075528;28;20182;-68
2021/07/30 09:06:56;;;;;;;18.75;6.75;;;29.10;57.70;;;;;;5074851;28;20093;-68
2021/07/30 09:09:22;;;;;;;17.70;7.75;;;29.20;57.40;;;;;;5075171;28;20044;-69
2021/07/30 09:11:56;;;;;;;22.95;7.70;;;29.20;58.20;;;;;;5075234;28;20032;-71
2021/07/30 09:14:51;;;;;;;22.63;8.15;;;29.30;58.10;;;;;;5073739;28;20399;-71
2021/07/30 09:17:17;;;;;;;12.48;6.35;;;29.30;57.80;;;;;;5066283;28;20480;-71
2021/07/30 09:20:09;;;;;;;15.13;7.35;;;29.40;57.10;;;;;;5075222;28;20021;-71
2021/07/30 09:22:53;;;;;;;19.42;7.55;;;29.40;56.80;;;;;;5072830;28;20040;-71
2021/07/30 09:25:36;;;;;;;19.35;7.53;;;29.50;56.80;;;;;;5074980;28;20473;-71
2021/07/30 09:28:05;;;;;;;12.52;6.60;;;29.50;57.30;;;;;;5074881;28;20076;-71
2021/07/30 09:30:32;;;;;;;14.07;6.82;;;29.50;57.20;;;;;;5074802;28;20044;-70
2021/07/30 09:32:58;;;;;;;11.55;6.03;;;29.60;56.90;;;;;;5074937;28;20047;-71
2021/07/30 09:35:23;;;;;;;11.77;6.07;;;29.70;56.30;;;;;;5074976;28;20520;-70
2021/07/30 09:38:15;;;;;;;11.27;6.07;;;29.70;55.90;;;;;;5075156;28;20125;-71
2021/07/30 09:40:41;;;;;;;16.75;6.80;;;29.70;56.10;;;;;;5074887;28;20063;-70
2021/07/30 09:43:24;;;;;;;11.30;6.28;;;29.80;55.70;;;;;;5074266;28;20105;-70
2021/07/30 09:45:51;;;;;;;10.48;6.07;;;29.90;55.70;;;;;;5074761;28;20074;-71
2021/07/30 09:48:19;;;;;;;11.73;6.80;;;29.90;55.80;;;;;;5074581;28;20480;-70
2021/07/30 09:50:46;;;;;;;10.27;6.22;;;30.00;55.00;;;;;;5074316;28;20028;-69
2021/07/30 09:53:14;;;;;;;13.52;7.10;;;30.10;54.40;;;;;;5074035;28;20028;-71
2021/07/30 09:55:41;;;;;;;15.07;6.53;;;30.10;53.60;;;;;;5072610;28;20052;-70
2021/07/30 09:58:08;;;;;;;13.95;6.78;;;30.20;54.40;;;;;;5074089;28;20028;-71
2021/07/30 10:00:36;;;;;;;15.57;7.50;;;30.20;54.20;;;;;;5073426;28;20020;-72
2021/07/30 10:03:02;;;;;;;13.40;6.68;;;30.30;53.60;;;;;;5072634;28;20036;-71
2021/07/30 10:05:31;;;;;;;10.55;6.13;;;30.30;53.70;;;;;;5071581;28;20036;-71
2021/07/30 10:08:00;;;;;;;12.07;6.38;;;30.40;53.90;;;;;;5071811;28;20571;-72
2021/07/30 10:10:28;;;;;;;11.98;6.03;;;30.50;53.80;;;;;;5073323;28;20017;-72
2021/07/30 10:12:57;;;;;;;8.77;6.40;;;30.50;53.60;;;;;;5073907;28;20131;-71
2021/07/30 10:15:23;;;;;;;13.88;6.70;;;30.60;53.00;;;;;;5073907;28;20112;-71
2021/07/30 10:17:53;;;;;;;11.13;6.70;;;30.70;52.90;;;;;;5073843;28;20047;-70
2021/07/30 10:20:21;;;;;;;16.70;6.63;;;30.70;52.90;;;;;;5074169;28;20024;-71
2021/07/30 10:23:12;;;;;;;10.43;5.90;;;30.70;52.70;;;;;;5073742;28;20032;-72
2021/07/30 10:25:58;;;;;;;13.43;6.38;;;30.70;52.20;;;;;;5073581;28;20097;-71
2021/07/30 10:28:29;;;;;;;13.10;6.47;;;30.70;52.60;;;;;;5073727;28;20060;-71
2021/07/30 10:31:14;;;;;;;15.80;6.57;;;30.70;52.00;;;;;;5073635;28;20017;-71
2021/07/30 10:33:48;;;;;;;13.80;6.43;;;30.70;50.70;;;;;;5073086;28;20381;-70
2021/07/30 10:36:33;;;;;;;14.02;6.53;;;30.70;50.90;;;;;;5073852;28;20409;-70
2021/07/30 10:39:11;;;;;;;16.08;6.93;;;30.70;51.80;;;;;;5074860;28;20024;-70
2021/07/30 10:41:39;;;;;;;17.70;6.43;;;30.80;52.10;;;;;;5076345;28;20041;-70
2021/07/30 10:44:06;;;;;;;11.73;6.20;;;30.80;51.80;;;;;;5073390;28;20027;-70
2021/07/30 10:46:32;;;;;;;10.18;6.32;;;30.90;51.80;;;;;;5073618;28;20469;-69
2021/07/30 10:48:58;;;;;;;17.10;7.80;;;31.00;51.40;;;;;;5073150;28;20477;-70
2021/07/30 10:51:28;;;;;;;8.88;6.13;;;31.00;50.70;;;;;;5073382;28;20078;-71
2021/07/30 10:54:05;;;;;;;10.80;6.43;;;31.10;50.70;;;;;;5073380;28;20489;-70
2021/07/30 10:56:31;;;;;;;10.60;6.15;;;31.10;50.90;;;;;;5071804;28;20477;-73
2021/07/30 10:58:59;;;;;;;9.88;6.05;;;31.20;51.40;;;;;;5070070;28;20032;-73
2021/07/30 11:01:28;;;;;;;14.75;6.43;;;31.30;51.00;;;;;;5070724;28;20428;-73
2021/07/30 11:03:54;;;;;;;19.33;6.80;;;31.30;51.30;;;;;;5072637;28;20031;-73
2021/07/30 11:06:28;;;;;;;12.70;7.05;;;31.30;50.30;;;;;;5073186;28;20008;-72
2021/07/30 11:09:18;;;;;;;13.57;7.00;;;31.40;50.00;;;;;;5073411;28;20048;-73
2021/07/30 11:11:46;;;;;;;11.93;6.18;;;31.50;50.50;;;;;;5072815;28;20511;-73
2021/07/30 11:14:14;;;;;;;16.45;6.18;;;31.60;50.50;;;;;;5069446;28;20021;-73
2021/07/30 11:16:45;;;;;;;15.98;6.90;;;31.50;50.30;;;;;;5061511;28;20493;-74
2021/07/30 11:19:13;;;;;;;10.68;6.82;;;31.60;50.40;;;;;;5053029;28;20033;-72
2021/07/30 11:21:39;;;;;;;10.73;6.22;;;31.60;50.40;;;;;;5052801;28;20473;-73
2021/07/30 11:24:06;;;;;;;14.18;6.38;;;31.60;50.60;;;;;;5061370;28;20024;-73
2021/07/30 11:26:37;;;;;;;12.00;6.07;;;31.70;50.10;;;;;;5061784;28;20076;-73
2021/07/30 11:29:09;;;;;;;11.60;6.10;;;31.70;49.10;;;;;;5067187;28;20024;-72
2021/07/30 11:31:52;;;;;;;14.23;6.55;;;31.80;49.30;;;;;;5066117;28;20025;-74
2021/07/30 11:34:28;;;;;;;10.52;6.00;;;31.80;48.60;;;;;;5060792;28;20092;-74
2021/07/30 11:36:54;;;;;;;15.05;6.45;;;31.80;49.20;;;;;;5069642;28;20485;-73
2021/07/30 11:39:19;;;;;;;12.95;6.32;;;31.70;49.30;;;;;;5072660;28;20059;-74
2021/07/30 11:41:52;;;;;;;11.77;7.20;;;31.70;50.30;;;;;;5072678;28;20020;-73
2021/07/30 11:44:18;;;;;;;13.25;6.53;;;31.80;49.60;;;;;;5071432;28;20051;-73
2021/07/30 11:46:53;;;;;;;11.98;6.25;;;31.80;50.40;;;;;;5072838;28;20366;-74
2021/07/30 11:49:28;;;;;;;21.23;6.78;;;31.80;51.00;;;;;;5072562;28;20030;-73
2021/07/30 11:51:54;;;;;;;15.30;6.57;;;31.80;50.60;;;;;;5072797;28;20376;-72
2021/07/30 11:54:27;;;;;;;10.77;7.03;;;31.70;50.30;;;;;;5071547;28;20039;-73
2021/07/30 11:56:54;;;;;;;11.55;6.45;;;31.70;50.80;;;;;;5071920;28;20021;-72
2021/07/30 11:59:20;;;;;;;13.85;6.90;;;31.50;50.90;;;;;;5072727;28;20020;-75
2021/07/30 12:02:05;;;;;;;13.60;6.88;;;31.50;51.60;;;;;;5072177;28;20106;-76
2021/07/30 12:04:33;;;;;;;13.70;7.10;;;31.50;51.50;;;;;;5072392;28;20423;-75
2021/07/30 12:07:04;;;;;;;9.30;6.63;;;31.60;51.10;;;;;;5072294;28;20031;-72
2021/07/30 12:09:31;;;;;;;19.52;6.90;;;31.60;50.60;;;;;;5072710;28;20067;-72
2021/07/30 12:11:59;;;;;;;14.68;6.47;;;31.60;50.60;;;;;;5072475;28;20078;-73
2021/07/30 12:14:30;;;;;;;14.02;6.40;;;31.70;50.70;;;;;;5072726;28;20469;-74
2021/07/30 12:16:57;;;;;;;16.50;6.82;;;31.80;50.10;;;;;;5074754;28;20123;-74
2021/07/30 12:19:28;;;;;;;12.50;7.05;;;31.70;50.50;;;;;;5075115;28;20024;-73
2021/07/30 12:21:55;;;;;;;16.70;7.53;;;31.60;50.70;;;;;;5076041;28;20031;-74
2021/07/30 12:24:21;;;;;;;10.93;6.53;;;31.60;51.60;;;;;;5076032;28;20362;-74
2021/07/30 12:26:47;;;;;;;12.57;6.65;;;31.60;51.40;;;;;;5075879;28;20048;-73
2021/07/30 12:29:42;;;;;;;9.95;6.40;;;31.70;50.20;;;;;;5076284;28;20484;-74
2021/07/30 12:32:18;;;;;;;16.70;6.22;;;31.70;50.90;;;;;;5076005;28;20031;-73
2021/07/30 12:35:03;;;;;;;11.48;5.93;;;31.80;51.70;;;;;;5076149;28;20404;-74
2021/07/30 12:37:31;;;;;;;11.85;6.68;;;31.90;50.90;;;;;;5076178;28;20024;-74
2021/07/30 12:40:18;;;;;;;14.52;6.72;;;31.90;50.60;;;;;;5076003;28;20032;-73